createdAt,value
2023-05-10T00:02:01.797Z,100685.34
2023-05-10T00:04:30.366Z,100677.13
2023-05-10T00:06:59.011Z,100677.66
2023-05-10T00:09:27.616Z,100685.88
2023-05-10T00:11:56.086Z,100685.88
2023-05-10T00:14:24.611Z,100678.38
2023-05-10T00:16:53.294Z,100681.78
2023-05-10T00:19:21.894Z,100684.31
2023-05-10T00:21:50.466Z,100674.94
2023-05-10T00:24:19.028Z,100672.44
2023-05-10T00:26:47.521Z,100673.78
2023-05-10T00:29:16.005Z,100687.63
2023-05-10T00:34:12.747Z,100680.97
2023-05-10T00:36:41.714Z,100683.72
2023-05-10T00:39:10.182Z,100681.25
2023-05-10T00:41:38.754Z,100680.16
2023-05-10T00:44:07.229Z,100679.31
2023-05-10T00:46:36.131Z,100673.34
2023-05-10T00:49:05.456Z,100669.50
2023-05-10T00:51:34.195Z,100668.66
2023-05-10T00:54:03.905Z,100665.38
2023-05-10T00:56:32.606Z,100670.06
2023-05-10T00:59:01.273Z,100677.22
2023-05-10T01:01:29.957Z,100672.53
2023-05-10T01:03:59.166Z,100670.06
2023-05-10T01:06:28.704Z,100669.53
2023-05-10T01:08:57.508Z,100670.91
2023-05-10T01:11:26.246Z,100673.91
2023-05-10T01:13:58.289Z,100670.88
2023-05-10T01:16:28.229Z,100671.16
2023-05-10T01:18:56.635Z,100663.72
2023-05-10T01:21:37.731Z,100659.59
2023-05-10T01:24:28.088Z,100659.34
2023-05-10T01:27:05.640Z,100657.13
2023-05-10T01:30:09.253Z,100656.59
2023-05-10T01:32:54.444Z,100659.63
2023-05-10T01:35:42.904Z,100661.81
2023-05-10T01:38:34.068Z,100659.06
2023-05-10T01:41:11.599Z,100656.88
2023-05-10T01:44:04.686Z,100651.91
2023-05-10T01:46:38.505Z,100664.56
2023-05-10T01:49:18.437Z,100671.44
2023-05-10T01:51:52.616Z,100670.59
2023-05-10T01:54:23.336Z,100671.44
2023-05-10T01:56:59.701Z,100665.38
2023-05-10T01:59:34.134Z,100666.34
2023-05-10T02:02:05.406Z,100665.84
2023-05-10T02:04:39.086Z,100677.19
2023-05-10T02:07:09.449Z,100670.59
2023-05-10T02:09:39.113Z,100671.69
2023-05-10T02:12:09.378Z,100664.84
2023-05-10T02:14:38.240Z,100669.75
2023-05-10T02:17:08.648Z,100677.13
2023-05-10T02:19:40.209Z,100677.72
2023-05-10T02:22:10.004Z,100676.31
2023-05-10T02:24:40.773Z,100684.88
2023-05-10T02:27:11.554Z,100694.41
2023-05-10T02:29:40.344Z,100696.59
2023-05-10T02:32:12.906Z,100686.00
2023-05-10T02:34:42.108Z,100698.66
2023-05-10T02:37:11.092Z,100694.78
2023-05-10T02:39:44.626Z,100701.09
2023-05-10T02:42:16.849Z,100697.59
2023-05-10T02:44:49.190Z,100692.56
2023-05-10T02:47:19.262Z,100695.88
2023-05-10T02:49:48.934Z,100690.69
2023-05-10T02:52:24.251Z,100694.13
2023-05-10T02:54:56.761Z,100695.81
2023-05-10T02:57:32.735Z,100701.03
2023-05-10T03:00:03.448Z,100695.00
2023-05-10T03:02:32.065Z,100698.91
2023-05-10T03:05:00.749Z,100698.94
2023-05-10T03:07:29.352Z,100697.00
2023-05-10T03:09:58.161Z,100695.00
2023-05-10T03:12:43.621Z,100699.50
2023-05-10T03:15:19.373Z,100700.84
2023-05-10T03:17:56.456Z,100700.56
2023-05-10T03:20:32.396Z,100693.06
2023-05-10T03:23:39.451Z,100700.78
2023-05-10T03:26:09.614Z,100699.75
2023-05-10T03:28:39.042Z,100703.84
2023-05-10T03:31:08.423Z,100711.31
2023-05-10T03:33:36.959Z,100711.28
2023-05-10T03:36:05.702Z,100714.00
2023-05-10T03:38:34.046Z,100713.97
2023-05-10T03:41:02.532Z,100721.16
2023-05-10T03:43:30.929Z,100713.97
2023-05-10T03:45:59.333Z,100721.28
2023-05-10T03:48:27.809Z,100726.66
2023-05-10T03:50:56.399Z,100722.81
2023-05-10T03:53:25.518Z,100716.63
2023-05-10T03:55:54.091Z,100723.81
2023-05-10T03:58:22.845Z,100723.84
2023-05-10T04:00:52.413Z,100721.19
2023-05-10T04:03:22.068Z,100728.03
2023-05-10T04:05:59.734Z,100723.41
2023-05-10T04:08:28.445Z,100725.16
2023-05-10T04:11:07.477Z,100731.25
2023-05-10T04:13:36.346Z,100728.97
2023-05-10T04:16:06.304Z,100733.72
2023-05-10T04:18:34.834Z,100732.16
2023-05-10T04:21:03.657Z,100722.97
2023-05-10T04:23:32.223Z,100718.97
2023-05-10T04:26:02.089Z,100725.88
2023-05-10T04:28:30.706Z,100721.19
2023-05-10T04:31:11.368Z,100728.16
2023-05-10T04:33:39.860Z,100724.72
2023-05-10T04:36:08.557Z,100728.84
2023-05-10T04:38:37.213Z,100722.22
2023-05-10T04:41:07.572Z,100730.25
2023-05-10T04:43:37.139Z,100724.22
2023-05-10T04:46:06.596Z,100726.25
2023-05-10T04:48:35.293Z,100723.28
2023-05-10T04:51:05.000Z,100728.53
2023-05-10T04:53:33.663Z,100742.09
2023-05-10T04:56:02.239Z,100741.91
2023-05-10T04:58:30.701Z,100739.38
2023-05-10T05:01:06.045Z,100742.38
2023-05-10T05:03:34.873Z,100740.59
2023-05-10T05:06:04.025Z,100747.53
2023-05-10T05:08:32.689Z,100752.59
2023-05-10T05:11:01.260Z,100746.56
2023-05-10T05:13:29.826Z,100750.72
2023-05-10T05:15:58.338Z,100756.06
2023-05-10T05:18:26.738Z,100756.50
2023-05-10T05:20:55.196Z,100758.97
2023-05-10T05:23:25.819Z,100755.84
2023-05-10T05:25:54.746Z,100758.97
2023-05-10T05:28:23.181Z,100761.16
2023-05-10T05:30:51.579Z,100764.69
2023-05-10T05:33:20.053Z,100766.88
2023-05-10T05:35:51.609Z,100767.91
2023-05-10T05:38:20.122Z,100769.22
2023-05-10T05:40:48.514Z,100779.63
2023-05-10T05:43:16.956Z,100774.22
2023-05-10T05:45:45.519Z,100781.19
2023-05-10T05:48:14.044Z,100779.97
2023-05-10T05:50:42.500Z,100779.22
2023-05-10T05:53:12.105Z,100779.06
2023-05-10T05:55:40.482Z,100783.28
2023-05-10T05:58:09.005Z,100782.75
2023-05-10T06:00:37.631Z,100785.50
2023-05-10T06:03:07.362Z,100787.72
2023-05-10T06:05:35.821Z,100787.94
2023-05-10T06:08:04.479Z,100796.13
2023-05-10T06:10:33.028Z,100793.59
2023-05-10T06:13:01.684Z,100802.09
2023-05-10T06:15:30.158Z,100795.13
2023-05-10T06:17:58.699Z,100802.78
2023-05-10T06:20:27.668Z,100806.69
2023-05-10T06:22:56.212Z,100807.47
2023-05-10T06:25:24.881Z,100810.75
2023-05-10T06:27:58.095Z,100812.03
2023-05-10T06:30:30.359Z,100816.50
2023-05-10T06:33:00.337Z,100817.81
2023-05-10T06:35:29.872Z,100812.28
2023-05-10T06:37:58.330Z,100816.75
2023-05-10T06:40:27.028Z,100821.25
2023-05-10T06:42:55.553Z,100820.31
2023-05-10T06:45:24.046Z,100831.50
2023-05-10T06:47:53.854Z,100836.50
2023-05-10T06:50:22.335Z,100835.53
2023-05-10T06:52:52.388Z,100840.00
2023-05-10T06:55:21.719Z,100842.47
2023-05-10T06:57:50.131Z,100831.75
2023-05-10T07:00:19.906Z,100830.66
2023-05-10T07:02:48.911Z,100838.84
2023-05-10T07:05:17.662Z,100833.81
2023-05-10T07:07:46.378Z,100837.50
2023-05-10T07:10:15.012Z,100847.13
2023-05-10T07:12:43.788Z,100852.84
2023-05-10T07:15:12.410Z,100845.34
2023-05-10T07:17:43.148Z,100849.44
2023-05-10T07:20:13.180Z,100849.47
2023-05-10T07:22:42.056Z,100863.69
2023-05-10T07:25:10.860Z,100858.78
2023-05-10T07:27:39.461Z,100869.00
2023-05-10T07:30:08.918Z,100867.97
2023-05-10T07:32:37.477Z,100872.13
2023-05-10T07:35:06.560Z,100872.41
2023-05-10T07:37:35.026Z,100873.47
2023-05-10T07:40:03.849Z,100870.75
2023-05-10T07:42:32.261Z,100866.50
2023-05-10T07:45:00.707Z,100858.03
2023-05-10T07:47:29.139Z,100863.56
2023-05-10T07:49:57.672Z,100873.06
2023-05-10T07:52:26.198Z,100875.56
2023-05-10T07:54:54.634Z,100887.34
2023-05-10T07:57:23.442Z,100887.84
2023-05-10T07:59:51.865Z,100891.75
2023-05-10T08:02:20.414Z,100901.09
2023-05-10T08:04:48.756Z,100889.38
2023-05-10T08:07:17.625Z,100895.47
2023-05-10T08:09:46.101Z,100902.13
2023-05-10T08:12:14.576Z,100903.22
2023-05-10T08:14:43.664Z,100908.47
2023-05-10T08:17:12.219Z,100911.47
2023-05-10T08:19:40.992Z,100923.59
2023-05-10T08:22:09.620Z,100927.03
2023-05-10T08:24:39.450Z,100940.50
2023-05-10T08:27:09.019Z,100930.81
2023-05-10T08:29:49.529Z,100923.28
2023-05-10T08:32:19.007Z,100926.13
2023-05-10T08:34:47.433Z,100932.56
2023-05-10T08:37:15.863Z,100923.69
2023-05-10T08:39:48.875Z,100931.41
2023-05-10T08:42:21.485Z,100931.06
2023-05-10T08:44:50.441Z,100929.06
2023-05-10T08:47:19.632Z,100943.63
2023-05-10T08:49:52.293Z,100944.50
2023-05-10T08:52:22.786Z,100936.34
2023-05-10T08:54:51.404Z,100935.44
2023-05-10T08:57:20.233Z,100945.25
2023-05-10T08:59:48.818Z,100949.13
2023-05-10T09:02:19.155Z,100949.13
2023-05-10T09:04:47.880Z,100951.78
2023-05-10T09:07:17.644Z,100954.31
2023-05-10T09:09:46.874Z,100964.84
2023-05-10T09:12:17.270Z,100956.56
2023-05-10T09:14:46.757Z,100952.91
2023-05-10T09:17:15.416Z,100952.59
2023-05-10T09:19:44.027Z,100957.66
2023-05-10T09:22:12.638Z,100961.00
2023-05-10T09:24:46.125Z,100961.81
2023-05-10T09:27:14.622Z,100968.44
2023-05-10T09:29:43.907Z,100963.75
2023-05-10T09:32:13.854Z,100964.78
2023-05-10T09:34:43.433Z,100976.06
2023-05-10T09:37:11.911Z,100968.06
2023-05-10T09:39:40.408Z,100977.97
2023-05-10T09:42:10.524Z,100959.75
2023-05-10T09:44:39.363Z,100966.56
2023-05-10T09:47:07.938Z,100963.47
2023-05-10T09:49:36.565Z,100986.06
2023-05-10T09:52:07.494Z,100974.31
2023-05-10T09:54:36.842Z,100978.69
2023-05-10T09:57:05.982Z,100982.34
2023-05-10T09:59:36.198Z,100983.63
2023-05-10T10:02:04.918Z,100976.09
2023-05-10T10:04:40.488Z,100995.53
2023-05-10T10:07:09.480Z,100983.06
2023-05-10T10:09:38.011Z,100980.06
2023-05-10T10:12:06.779Z,100993.28
2023-05-10T10:14:35.406Z,100984.81
2023-05-10T10:17:08.142Z,100983.78
2023-05-10T10:19:38.015Z,100980.78
2023-05-10T10:22:07.237Z,100987.91
2023-05-10T10:24:35.932Z,100970.94
2023-05-10T10:27:15.941Z,100982.56
2023-05-10T10:30:14.651Z,100981.56
2023-05-10T10:33:10.113Z,100984.75
2023-05-10T10:35:47.439Z,100990.50
2023-05-10T10:38:16.512Z,100982.69
2023-05-10T10:40:46.034Z,100986.91
2023-05-10T10:43:28.420Z,100980.47
2023-05-10T10:46:16.977Z,100978.56
2023-05-10T10:48:52.517Z,100971.47
2023-05-10T10:51:21.159Z,100973.41
2023-05-10T10:53:49.933Z,100974.25
2023-05-10T10:56:24.676Z,100978.09
2023-05-10T10:58:54.539Z,100989.91
2023-05-10T11:01:23.236Z,100985.91
2023-05-10T11:04:01.219Z,100982.44
2023-05-10T11:06:34.431Z,100981.84
2023-05-10T11:09:08.198Z,100986.03
2023-05-10T11:11:44.751Z,100977.66
2023-05-10T11:14:13.341Z,100985.44
2023-05-10T11:16:43.843Z,100982.50
2023-05-10T11:19:14.360Z,100988.47
2023-05-10T11:22:05.934Z,100991.47
2023-05-10T11:24:34.806Z,100991.59
2023-05-10T11:27:03.613Z,100990.47
2023-05-10T11:29:32.103Z,100987.59
2023-05-10T11:32:01.227Z,100985.13
2023-05-10T11:34:31.744Z,100994.13
2023-05-10T11:37:00.832Z,100990.16
2023-05-10T11:39:32.787Z,100990.34
2023-05-10T11:42:01.391Z,100992.91
2023-05-10T11:44:33.717Z,100987.31
2023-05-10T11:47:02.994Z,100991.25
2023-05-10T11:49:31.600Z,100996.94
2023-05-10T11:52:07.812Z,100994.53
2023-05-10T11:54:36.394Z,100999.28
2023-05-10T11:57:05.239Z,101011.06
2023-05-10T11:59:33.771Z,101006.63
2023-05-10T12:02:02.555Z,101008.09
2023-05-10T12:04:31.922Z,101011.41
2023-05-10T12:07:00.526Z,101016.34
2023-05-10T12:09:42.444Z,101011.16
2023-05-10T12:12:18.476Z,101014.47
2023-05-10T12:14:51.676Z,101009.78
2023-05-10T12:17:20.276Z,101014.69
2023-05-10T12:19:48.890Z,101002.97
2023-05-10T12:22:21.950Z,101010.75
2023-05-10T12:24:51.620Z,101014.94
2023-05-10T12:27:20.165Z,101016.31
2023-05-10T12:29:49.195Z,101005.22
2023-05-10T12:32:17.754Z,101004.81
2023-05-10T12:34:47.702Z,101026.19
2023-05-10T12:37:18.519Z,101033.44
2023-05-10T12:39:47.240Z,101040.84
2023-05-10T12:42:15.766Z,101046.16
2023-05-10T12:44:44.556Z,101036.91
2023-05-10T12:47:13.000Z,101032.53
2023-05-10T12:49:41.628Z,101029.47
2023-05-10T12:52:10.271Z,101041.09
2023-05-10T12:54:38.709Z,101036.69
2023-05-10T12:57:07.295Z,101045.47
2023-05-10T12:59:37.425Z,101046.13
2023-05-10T13:02:07.552Z,101038.56
2023-05-10T13:04:36.110Z,101034.31
2023-05-10T13:07:04.614Z,101034.38
2023-05-10T13:09:33.365Z,101041.16
2023-05-10T13:12:02.394Z,101037.97
2023-05-10T13:14:31.062Z,101035.03
2023-05-10T13:16:59.589Z,101051.13
2023-05-10T13:19:28.253Z,101047.53
2023-05-10T13:21:56.662Z,101052.19
2023-05-10T13:24:25.082Z,101054.97
2023-05-10T13:26:53.667Z,101061.56
2023-05-10T13:29:23.506Z,101061.38
2023-05-10T13:31:52.402Z,101051.75
2023-05-10T13:34:25.129Z,101062.53
2023-05-10T13:36:54.839Z,101062.38
2023-05-10T13:39:23.744Z,101064.56
2023-05-10T13:41:53.869Z,101067.06
2023-05-10T13:44:23.086Z,101065.69
2023-05-10T13:46:51.611Z,101063.78
2023-05-10T13:49:20.472Z,101060.81
2023-05-10T13:51:49.261Z,101055.03
2023-05-10T13:54:20.466Z,101061.00
2023-05-10T13:56:49.480Z,101053.66
2023-05-10T13:59:18.226Z,101054.28
2023-05-10T14:01:46.988Z,101057.53
2023-05-10T14:04:15.671Z,101052.81
2023-05-10T14:06:44.248Z,101059.06
2023-05-10T14:09:12.833Z,101052.31
2023-05-10T14:11:44.127Z,101061.94
2023-05-10T14:14:13.666Z,101066.19
2023-05-10T14:16:45.716Z,101065.34
2023-05-10T14:19:14.134Z,101067.06
2023-05-10T14:21:42.645Z,101059.94
2023-05-10T14:24:11.223Z,101057.94
2023-05-10T14:26:39.765Z,101061.53
2023-05-10T14:29:09.935Z,101066.28
2023-05-10T14:31:39.936Z,101069.00
2023-05-10T14:34:08.411Z,101070.09
2023-05-10T14:36:36.891Z,101067.41
2023-05-10T14:39:05.996Z,101068.25
2023-05-10T14:41:34.473Z,101065.19
2023-05-10T14:44:04.333Z,101067.34
2023-05-10T14:46:32.862Z,101058.41
2023-05-10T14:49:01.575Z,101058.34
2023-05-10T14:51:30.056Z,101061.28
2023-05-10T14:53:58.831Z,101061.91
2023-05-10T14:56:27.566Z,101058.69
2023-05-10T14:58:57.162Z,101060.06
2023-05-10T15:01:26.469Z,101060.31
2023-05-10T15:03:55.994Z,101056.19
2023-05-10T15:06:32.746Z,101054.91
2023-05-10T15:09:02.522Z,101054.78
2023-05-10T15:11:31.167Z,101043.88
2023-05-10T15:13:59.762Z,101041.03
2023-05-10T15:16:28.295Z,101045.78
2023-05-10T15:18:56.753Z,101060.13
2023-05-10T15:21:25.189Z,101070.84
2023-05-10T15:23:53.646Z,101074.94
2023-05-10T15:26:22.973Z,101071.44
2023-05-10T15:28:51.507Z,101065.56
2023-05-10T15:31:20.125Z,101060.31
2023-05-10T15:33:48.646Z,101077.69
2023-05-10T15:36:18.760Z,101072.91
2023-05-10T15:38:48.147Z,101081.97
2023-05-10T15:41:16.720Z,101078.63
2023-05-10T15:43:45.508Z,101080.22
2023-05-10T15:46:13.998Z,101089.63
2023-05-10T15:48:42.857Z,101094.00
2023-05-10T15:51:11.462Z,101090.84
2023-05-10T15:53:49.504Z,101100.09
2023-05-10T15:56:22.340Z,101096.25
2023-05-10T15:58:51.290Z,101109.34
2023-05-10T16:01:21.283Z,101108.78
2023-05-10T16:03:49.958Z,101113.75
2023-05-10T16:06:18.458Z,101107.91
2023-05-10T16:08:46.837Z,101105.63
2023-05-10T16:11:15.406Z,101105.06
2023-05-10T16:13:43.840Z,101107.41
2023-05-10T16:16:12.328Z,101110.53
2023-05-10T16:18:41.187Z,101123.91
2023-05-10T16:21:09.755Z,101128.63
2023-05-10T16:23:39.692Z,101127.09
2023-05-10T16:26:08.821Z,101137.34
2023-05-10T16:28:37.644Z,101135.28
2023-05-10T16:31:06.135Z,101136.31
2023-05-10T16:33:34.631Z,101132.22
2023-05-10T16:36:03.180Z,101125.75
2023-05-10T16:38:31.937Z,101137.50
2023-05-10T16:41:02.338Z,101135.63
2023-05-10T16:43:32.798Z,101132.00
2023-05-10T16:46:01.363Z,101125.00
2023-05-10T16:48:29.931Z,101118.72
2023-05-10T16:50:58.444Z,101120.13
2023-05-10T16:53:27.051Z,101122.56
2023-05-10T16:55:55.483Z,101136.06
2023-05-10T16:58:24.041Z,101136.53
2023-05-10T17:00:52.971Z,101138.72
2023-05-10T17:03:21.531Z,101141.19
2023-05-10T17:05:51.182Z,101139.28
2023-05-10T17:08:22.081Z,101148.16
2023-05-10T17:10:50.537Z,101141.00
2023-05-10T17:13:18.947Z,101158.09
2023-05-10T17:15:47.547Z,101147.88
2023-05-10T17:18:17.305Z,101159.47
2023-05-10T17:20:45.890Z,101163.31
2023-05-10T17:23:14.555Z,101166.28
2023-05-10T17:25:43.142Z,101164.63
2023-05-10T17:28:12.747Z,101165.38
2023-05-10T17:30:41.216Z,101165.81
2023-05-10T17:33:10.689Z,101157.81
2023-05-10T17:35:39.234Z,101155.22
2023-05-10T17:38:09.715Z,101161.81
2023-05-10T17:40:40.825Z,101166.03
2023-05-10T17:43:09.602Z,101168.84
2023-05-10T17:45:38.284Z,101163.81
2023-05-10T17:48:07.761Z,101163.53
2023-05-10T17:50:36.293Z,101166.63
2023-05-10T17:53:04.779Z,101171.31
2023-05-10T17:55:33.414Z,101166.34
2023-05-10T17:58:02.040Z,101166.78
2023-05-10T18:00:30.484Z,101153.38
2023-05-10T18:02:58.955Z,101161.09
2023-05-10T18:05:28.583Z,101162.22
2023-05-10T18:07:57.302Z,101166.19
2023-05-10T18:10:25.710Z,101167.59
2023-05-10T18:12:54.169Z,101173.47
2023-05-10T18:15:22.975Z,101175.09
2023-05-10T18:17:51.432Z,101173.66
2023-05-10T18:20:19.829Z,101182.69
2023-05-10T18:22:48.591Z,101184.66
2023-05-10T18:25:17.574Z,101180.88
2023-05-10T18:27:46.158Z,101183.44
2023-05-10T18:30:14.669Z,101188.66
2023-05-10T18:32:43.472Z,101183.72
2023-05-10T18:35:12.291Z,101188.34
2023-05-10T18:37:40.863Z,101190.88
2023-05-10T18:40:11.066Z,101187.25
2023-05-10T18:42:39.767Z,101187.25
2023-05-10T18:45:08.902Z,101187.88
2023-05-10T18:47:37.590Z,101191.25
2023-05-10T18:50:07.843Z,101189.69
2023-05-10T18:52:39.399Z,101194.41
2023-05-10T18:55:08.322Z,101195.84
2023-05-10T18:57:41.180Z,101196.09
2023-05-10T19:00:12.312Z,101192.25
2023-05-10T19:02:41.570Z,101195.84
2023-05-10T19:05:10.244Z,101205.50
2023-05-10T19:07:39.414Z,101201.09
2023-05-10T19:10:08.393Z,101201.94
2023-05-10T19:12:37.447Z,101199.72
2023-05-10T19:15:06.511Z,101202.59
2023-05-10T19:17:36.859Z,101200.38
2023-05-10T19:20:07.072Z,101198.13
2023-05-10T19:22:47.258Z,101196.81
2023-05-10T19:25:29.289Z,101198.81
2023-05-10T19:27:58.498Z,101197.63
2023-05-10T19:30:28.041Z,101204.31
2023-05-10T19:32:56.562Z,101199.72
2023-05-10T19:35:25.377Z,101210.47
2023-05-10T19:37:54.259Z,101208.53
2023-05-10T19:40:22.806Z,101214.06
2023-05-10T19:42:51.215Z,101211.31
2023-05-10T19:45:20.138Z,101214.88
2023-05-10T19:47:48.672Z,101210.41
2023-05-10T19:50:18.908Z,101216.53
2023-05-10T19:52:48.057Z,101221.53
2023-05-10T19:55:28.250Z,101216.81
2023-05-10T19:57:57.897Z,101224.28
2023-05-10T20:00:27.359Z,101228.94
2023-05-10T20:02:55.939Z,101224.72
2023-05-10T20:05:24.438Z,101227.38
2023-05-10T20:07:52.995Z,101221.88
2023-05-10T20:10:22.056Z,101221.88
2023-05-10T20:12:52.021Z,101225.78
2023-05-10T20:15:22.899Z,101226.72
2023-05-10T20:17:53.173Z,101221.69
2023-05-10T20:20:21.955Z,101233.59
2023-05-10T20:22:51.031Z,101231.03
2023-05-10T20:25:20.081Z,101219.72
2023-05-10T20:27:50.825Z,101228.38
2023-05-10T20:30:19.646Z,101223.88
2023-05-10T20:32:48.430Z,101227.44
2023-05-10T20:35:17.034Z,101226.16
2023-05-10T20:37:45.539Z,101222.03
2023-05-10T20:40:14.012Z,101232.66
2023-05-10T20:42:42.549Z,101221.84
2023-05-10T20:45:11.351Z,101233.97
2023-05-10T20:47:39.755Z,101242.00
2023-05-10T20:50:08.550Z,101242.47
2023-05-10T20:52:37.118Z,101244.97
2023-05-10T20:55:06.040Z,101239.31
2023-05-10T20:57:34.457Z,101245.34
2023-05-10T21:00:03.414Z,101248.03
2023-05-10T21:02:31.909Z,101243.59
2023-05-10T21:05:00.531Z,101237.63
2023-05-10T21:07:29.175Z,101249.75
2023-05-10T21:09:57.658Z,101238.56
2023-05-10T21:12:26.224Z,101238.34
2023-05-10T21:14:54.615Z,101239.00
2023-05-10T21:17:23.162Z,101233.28
2023-05-10T21:19:51.686Z,101238.16
2023-05-10T21:22:20.242Z,101253.00
2023-05-10T21:24:48.591Z,101240.25
2023-05-10T21:27:17.010Z,101240.69
2023-05-10T21:29:45.769Z,101245.91
2023-05-10T21:32:15.031Z,101246.31
2023-05-10T21:34:43.527Z,101246.38
2023-05-10T21:37:11.929Z,101242.06
2023-05-10T21:39:40.356Z,101254.59
2023-05-10T21:42:08.798Z,101250.50
2023-05-10T21:44:38.598Z,101255.19
2023-05-10T21:47:06.992Z,101247.22
2023-05-10T21:49:35.725Z,101254.06
2023-05-10T21:52:04.227Z,101248.13
2023-05-10T21:54:32.804Z,101250.91
2023-05-10T21:57:01.281Z,101250.28
2023-05-10T21:59:29.741Z,101255.84
2023-05-10T22:01:59.321Z,101254.19
2023-05-10T22:04:27.716Z,101254.81
2023-05-10T22:06:56.149Z,101254.59
2023-05-10T22:09:25.424Z,101263.38
2023-05-10T22:11:53.801Z,101253.34
2023-05-10T22:14:22.901Z,101263.38
2023-05-10T22:16:51.345Z,101257.84
2023-05-10T22:19:19.796Z,101256.72
2023-05-10T22:21:48.268Z,101252.50
2023-05-10T22:24:16.724Z,101251.97
2023-05-10T22:26:45.335Z,101254.72
2023-05-10T22:29:13.724Z,101248.50
2023-05-10T22:31:42.137Z,101259.25
2023-05-10T22:34:10.757Z,101252.25
2023-05-10T22:36:39.232Z,101254.84
2023-05-10T22:39:07.610Z,101255.13
2023-05-10T22:41:36.049Z,101253.91
2023-05-10T22:44:04.994Z,101248.28
2023-05-10T22:46:33.429Z,101254.94
2023-05-10T22:49:01.873Z,101262.97
2023-05-10T22:51:30.273Z,101253.34
2023-05-10T22:53:58.768Z,101256.09
2023-05-10T22:56:27.318Z,101255.22
2023-05-10T22:58:56.966Z,101257.19
2023-05-10T23:01:25.650Z,101260.44
2023-05-10T23:03:54.135Z,101264.78
2023-05-10T23:06:22.551Z,101258.00
2023-05-10T23:08:50.956Z,101266.88
2023-05-10T23:11:19.436Z,101265.19
2023-05-10T23:13:48.279Z,101269.63
2023-05-10T23:16:17.068Z,101266.28
2023-05-10T23:18:45.803Z,101262.00
2023-05-10T23:21:14.287Z,101271.91
2023-05-10T23:23:42.696Z,101273.94
2023-05-10T23:26:11.351Z,101270.41
2023-05-10T23:28:39.750Z,101269.34
2023-05-10T23:31:08.166Z,101274.50
2023-05-10T23:33:36.606Z,101272.06
2023-05-10T23:36:05.250Z,101272.91
2023-05-10T23:38:33.670Z,101278.13
2023-05-10T23:41:02.151Z,101272.88
2023-05-10T23:43:30.594Z,101270.09
2023-05-10T23:45:59.467Z,101262.41
2023-05-10T23:48:28.011Z,101258.63
2023-05-10T23:50:56.438Z,101265.13
2023-05-10T23:53:24.823Z,101267.66
2023-05-10T23:55:53.332Z,101253.63
2023-05-10T23:58:22.000Z,101260.50
